Time;durP1;ratioP1;P1;durP2;ratioP2;P2;SDS_P1;SDS_P2;PMS_P1;PMS_P2;Temp;Humidity;BMP_temperature;BMP_pressure;BME280_temperature;BME280_humidity;BME280_pressure;Samples;Min_cycle;Max_cycle;Signal;HPM_P1;HPM_P2
2023/08/20 00:00:03;;;;;;;3.77;2.03;;;24.10;66.50;;;;;;5054782;28;20098;-34
2023/08/20 00:02:30;;;;;;;2.17;1.90;;;24.10;66.60;;;;;;5051962;28;20328;-35
2023/08/20 00:04:56;;;;;;;2.47;2.28;;;24.10;66.90;;;;;;5050843;28;20089;-34
2023/08/20 00:07:22;;;;;;;2.28;2.08;;;24.20;67.10;;;;;;5033552;28;20029;-36
2023/08/20 00:09:49;;;;;;;4.18;2.30;;;24.10;67.10;;;;;;5043386;28;20577;-36
2023/08/20 00:12:15;;;;;;;3.25;2.22;;;24.20;67.40;;;;;;5039897;28;20041;-35
2023/08/20 00:15:07;;;;;;;2.30;2.10;;;24.20;67.60;;;;;;5042926;28;20025;-35
2023/08/20 00:17:35;;;;;;;2.25;2.05;;;24.20;68.60;;;;;;5028720;28;20282;-35
2023/08/20 00:20:07;;;;;;;3.28;2.28;;;24.20;68.00;;;;;;5041552;28;20036;-35
2023/08/20 00:22:34;;;;;;;4.80;2.20;;;24.20;68.20;;;;;;5042392;28;20033;-36
2023/08/20 00:25:00;;;;;;;2.60;2.40;;;24.30;68.40;;;;;;5041778;28;20028;-35
2023/08/20 00:27:26;;;;;;;2.55;2.35;;;24.30;68.60;;;;;;5043832;28;20024;-35
2023/08/20 00:29:52;;;;;;;2.40;2.20;;;24.30;68.60;;;;;;5043446;28;20125;-36
2023/08/20 00:32:18;;;;;;;3.03;2.50;;;24.30;68.60;;;;;;5039618;28;20049;-36
2023/08/20 00:34:44;;;;;;;2.60;2.13;;;24.30;68.70;;;;;;5040689;28;20049;-36
2023/08/20 00:37:12;;;;;;;2.50;2.30;;;24.30;68.70;;;;;;5036566;28;20087;-35
2023/08/20 00:39:38;;;;;;;;;;;24.30;68.70;;;;;;5051136;28;20037;-35
2023/08/20 00:42:04;;;;;;;2.55;2.28;;;24.30;68.80;;;;;;5046731;28;19913;-34
2023/08/20 00:44:31;;;;;;;2.40;2.20;;;24.30;68.80;;;;;;5058052;28;20032;-34
2023/08/20 00:46:57;;;;;;;2.42;2.22;;;24.30;68.90;;;;;;5059412;28;20037;-34
2023/08/20 00:49:23;;;;;;;2.40;2.20;;;24.40;69.10;;;;;;5030249;28;20026;-34
2023/08/20 00:51:50;;;;;;;2.60;2.40;;;24.40;69.20;;;;;;5052580;28;20045;-34
2023/08/20 00:54:16;;;;;;;2.65;2.45;;;24.40;69.20;;;;;;5056927;28;20037;-34
2023/08/20 00:56:42;;;;;;;2.97;2.78;;;24.40;69.20;;;;;;5041696;28;20029;-34
2023/08/20 00:59:09;;;;;;;3.00;2.77;;;24.40;69.20;;;;;;5036258;28;20024;-34
2023/08/20 01:01:35;;;;;;;2.63;2.42;;;24.40;69.30;;;;;;5055211;28;20365;-34
2023/08/20 01:04:01;;;;;;;2.88;2.67;;;24.40;69.40;;;;;;5054356;28;20039;-34
2023/08/20 01:07:02;;;;;;;2.40;2.20;;;24.40;69.40;;;;;;5056427;28;20033;-34
2023/08/20 01:10:00;;;;;;;2.53;2.33;;;24.40;69.40;;;;;;5050679;28;20029;-33
2023/08/20 01:12:26;;;;;;;2.83;2.63;;;24.40;69.40;;;;;;5037841;28;20052;-35
2023/08/20 01:14:52;;;;;;;2.92;2.72;;;24.40;69.40;;;;;;5043394;28;20410;-35
2023/08/20 01:17:19;;;;;;;3.00;2.80;;;24.50;69.60;;;;;;5053180;28;20064;-34
2023/08/20 01:19:45;;;;;;;2.70;2.50;;;24.40;69.50;;;;;;5059577;28;20029;-34
2023/08/20 01:22:17;;;;;;;3.28;2.90;;;24.40;69.50;;;;;;5052162;28;20671;-34
2023/08/20 01:25:02;;;;;;;3.20;2.90;;;24.50;69.60;;;;;;5061552;28;20089;-34
2023/08/20 01:27:57;;;;;;;2.95;2.72;;;24.50;69.60;;;;;;5062685;28;20024;-34
2023/08/20 01:30:23;;;;;;;2.90;2.70;;;24.50;69.70;;;;;;5063176;28;20029;-34
2023/08/20 01:32:50;;;;;;;3.08;2.88;;;24.50;69.80;;;;;;5045348;28;20056;-34
2023/08/20 01:35:17;;;;;;;3.72;2.80;;;24.50;69.90;;;;;;5038012;28;20036;-34
2023/08/20 01:37:43;;;;;;;3.20;2.88;;;24.50;69.90;;;;;;5046089;28;20044;-34
2023/08/20 01:40:10;;;;;;;3.15;2.85;;;24.50;69.90;;;;;;5063797;28;20037;-34
2023/08/20 01:42:37;;;;;;;3.15;2.88;;;24.50;70.00;;;;;;5063225;28;20037;-34
2023/08/20 01:45:04;;;;;;;2.88;2.67;;;24.50;69.90;;;;;;5060241;28;20100;-34
2023/08/20 01:47:30;;;;;;;;;;;24.50;70.00;;;;;;5064116;28;20624;-34
2023/08/20 01:49:56;;;;;;;3.10;2.90;;;24.50;70.10;;;;;;5063913;28;19909;-34
2023/08/20 01:52:22;;;;;;;3.33;3.03;;;24.50;70.00;;;;;;5055396;28;20047;-34
2023/08/20 01:54:49;;;;;;;3.45;2.80;;;24.50;70.00;;;;;;5058561;28;20060;-34
2023/08/20 01:57:15;;;;;;;3.45;3.03;;;24.50;70.00;;;;;;5062654;28;20032;-34
2023/08/20 01:59:41;;;;;;;2.97;2.77;;;24.50;70.20;;;;;;5045548;28;20029;-34
2023/08/20 02:02:07;;;;;;;3.58;3.22;;;24.50;70.10;;;;;;5063627;28;20033;-34
2023/08/20 02:04:33;;;;;;;3.07;2.87;;;24.50;70.20;;;;;;5054746;28;20048;-34
2023/08/20 02:07:00;;;;;;;3.30;3.08;;;24.50;70.10;;;;;;5063408;28;20052;-34
2023/08/20 02:09:26;;;;;;;3.47;3.17;;;24.50;70.20;;;;;;5058945;28;20489;-35
2023/08/20 02:11:52;;;;;;;3.08;2.88;;;24.50;70.30;;;;;;5061821;28;20305;-34
2023/08/20 02:14:18;;;;;;;2.77;2.57;;;24.60;70.40;;;;;;5062468;28;20029;-35
2023/08/20 02:16:46;;;;;;;3.05;2.85;;;24.50;70.30;;;;;;5059455;28;20289;-34
2023/08/20 02:19:12;;;;;;;2.97;2.75;;;24.50;70.20;;;;;;5059901;28;20037;-34
2023/08/20 02:21:38;;;;;;;3.30;3.00;;;24.50;70.20;;;;;;5062984;28;20490;-34
2023/08/20 02:24:04;;;;;;;3.00;2.70;;;24.50;70.20;;;;;;5058308;28;20033;-34
2023/08/20 02:26:31;;;;;;;3.20;3.00;;;24.50;70.10;;;;;;5062153;28;20037;-34
2023/08/20 02:28:57;;;;;;;3.30;3.10;;;24.60;70.30;;;;;;5056411;28;20029;-34
2023/08/20 02:31:23;;;;;;;3.60;3.30;;;24.50;70.10;;;;;;5054277;28;20038;-34
2023/08/20 02:33:49;;;;;;;3.40;3.10;;;24.50;70.10;;;;;;5062734;28;20064;-34
2023/08/20 02:36:15;;;;;;;3.40;3.17;;;24.50;70.10;;;;;;5061877;28;20317;-34
2023/08/20 02:38:41;;;;;;;3.88;2.90;;;24.50;70.10;;;;;;5056918;28;20100;-35
2023/08/20 02:41:08;;;;;;;3.60;3.30;;;24.60;70.20;;;;;;5048241;28;20039;-34
2023/08/20 02:43:34;;;;;;;2.83;2.63;;;24.60;70.20;;;;;;5050209;28;21040;-35
2023/08/20 02:46:00;;;;;;;3.28;3.05;;;24.50;70.30;;;;;;5054752;28;20051;-35
2023/08/20 02:48:26;;;;;;;3.75;3.45;;;24.60;70.40;;;;;;5051678;28;20053;-34
2023/08/20 02:50:55;;;;;;;3.55;3.25;;;24.50;70.30;;;;;;5050922;28;20037;-35
2023/08/20 02:53:22;;;;;;;3.40;3.10;;;24.50;70.40;;;;;;5052259;28;20458;-35
2023/08/20 02:55:48;;;;;;;3.00;2.80;;;24.60;70.40;;;;;;5048232;28;21772;-34
2023/08/20 02:58:14;;;;;;;3.73;3.43;;;24.50;70.30;;;;;;5049631;28;20036;-35
2023/08/20 03:00:42;;;;;;;3.70;3.40;;;24.50;70.20;;;;;;5046879;28;20293;-34
2023/08/20 03:03:09;;;;;;;3.28;3.00;;;24.50;70.10;;;;;;5042160;28;20041;-34
2023/08/20 03:05:36;;;;;;;3.50;3.30;;;24.50;70.00;;;;;;5042383;28;20493;-35
2023/08/20 03:08:03;;;;;;;3.63;3.30;;;24.50;70.00;;;;;;5046959;28;20049;-35
2023/08/20 03:10:31;;;;;;;3.30;3.10;;;24.50;70.10;;;;;;5051619;28;20072;-34
2023/08/20 03:12:57;;;;;;;3.65;3.35;;;24.50;70.00;;;;;;5049371;28;20565;-34
2023/08/20 03:15:23;;;;;;;3.23;3.03;;;24.50;70.00;;;;;;5049260;28;20033;-34
2023/08/20 03:17:49;;;;;;;3.63;3.30;;;24.50;70.20;;;;;;5049250;28;20044;-35
2023/08/20 03:20:15;;;;;;;3.78;3.47;;;24.50;70.30;;;;;;5051551;28;20146;-34
2023/08/20 03:22:41;;;;;;;3.47;3.17;;;24.50;70.30;;;;;;5050383;28;20036;-35
2023/08/20 03:25:08;;;;;;;3.42;3.13;;;24.50;70.40;;;;;;5050713;28;20033;-34
2023/08/20 03:27:34;;;;;;;3.50;3.20;;;24.50;70.50;;;;;;5047263;28;20040;-34
2023/08/20 03:30:01;;;;;;;4.53;4.13;;;24.50;70.50;;;;;;5052504;28;20044;-35
2023/08/20 03:32:27;;;;;;;4.05;3.75;;;24.50;70.50;;;;;;5047357;28;20128;-34
2023/08/20 03:34:53;;;;;;;3.63;3.33;;;24.50;70.50;;;;;;5055158;28;20049;-34
2023/08/20 03:37:20;;;;;;;3.60;3.30;;;24.50;70.40;;;;;;5053279;28;20024;-34
2023/08/20 03:39:46;;;;;;;3.60;3.30;;;24.50;70.20;;;;;;5048699;28;20043;-35
2023/08/20 03:42:12;;;;;;;3.83;3.53;;;24.50;70.00;;;;;;5055313;28;20060;-35
2023/08/20 03:44:38;;;;;;;3.83;3.53;;;24.50;70.00;;;;;;5055251;28;20033;-34
2023/08/20 03:47:04;;;;;;;3.47;3.20;;;24.50;70.00;;;;;;5056869;28;20036;-34
2023/08/20 03:49:31;;;;;;;3.47;3.17;;;24.50;69.90;;;;;;5046787;28;20021;-35
2023/08/20 03:51:57;;;;;;;3.90;3.60;;;24.50;69.90;;;;;;5054663;28;20363;-34
2023/08/20 03:54:23;;;;;;;3.90;3.60;;;24.50;70.10;;;;;;5049581;28;20033;-35
2023/08/20 03:56:49;;;;;;;4.17;3.43;;;24.50;70.30;;;;;;5049871;28;20098;-34
2023/08/20 03:59:15;;;;;;;3.70;3.40;;;24.50;70.40;;;;;;5043701;28;20056;-35
2023/08/20 04:01:41;;;;;;;3.92;3.63;;;24.50;70.60;;;;;;5049865;28;20067;-34
2023/08/20 04:04:07;;;;;;;4.18;3.78;;;24.50;70.70;;;;;;5048257;28;20036;-34
2023/08/20 04:06:34;;;;;;;3.87;3.57;;;24.40;70.70;;;;;;5047774;28;20849;-34
2023/08/20 04:09:00;;;;;;;3.97;3.67;;;24.50;70.80;;;;;;5031951;28;20270;-35
2023/08/20 04:11:26;;;;;;;3.90;3.60;;;24.40;70.70;;;;;;5044916;28;20045;-34
2023/08/20 04:13:53;;;;;;;4.65;3.70;;;24.50;70.70;;;;;;5048108;28;20282;-34
2023/08/20 04:16:19;;;;;;;4.30;3.90;;;24.50;70.50;;;;;;5052207;28;20041;-34
2023/08/20 04:18:46;;;;;;;3.60;3.30;;;24.50;70.40;;;;;;5049565;28;20029;-35
2023/08/20 04:21:12;;;;;;;3.97;3.67;;;24.40;70.30;;;;;;5054674;28;20075;-35
2023/08/20 04:23:38;;;;;;;3.97;3.67;;;24.40;71.00;;;;;;5050128;28;20063;-34
2023/08/20 04:26:04;;;;;;;3.90;3.60;;;24.40;70.20;;;;;;5050469;28;20047;-34
2023/08/20 04:28:31;;;;;;;3.88;3.58;;;24.40;70.10;;;;;;5050177;28;20036;-35
2023/08/20 04:30:57;;;;;;;3.92;3.63;;;24.40;70.30;;;;;;5057283;28;20155;-35
2023/08/20 04:33:24;;;;;;;3.88;3.58;;;24.40;70.70;;;;;;5054178;28;20084;-34
2023/08/20 04:35:53;;;;;;;4.30;3.70;;;24.40;70.80;;;;;;5056391;28;20025;-34
2023/08/20 04:38:19;;;;;;;3.65;3.38;;;24.40;71.00;;;;;;5044889;28;20665;-34
2023/08/20 04:40:49;;;;;;;4.22;3.92;;;24.40;71.20;;;;;;5062223;28;20040;-34
2023/08/20 04:43:15;;;;;;;4.32;3.92;;;24.40;71.10;;;;;;5052808;28;20031;-35
2023/08/20 04:45:42;;;;;;;3.83;3.53;;;24.40;71.10;;;;;;5053809;28;20282;-34
2023/08/20 04:48:08;;;;;;;3.97;3.67;;;24.40;71.30;;;;;;5046722;28;20448;-38
2023/08/20 04:50:34;;;;;;;4.03;3.72;;;24.30;70.80;;;;;;5043695;28;20029;-34
2023/08/20 04:53:00;;;;;;;4.03;3.73;;;24.40;70.80;;;;;;5044965;28;20072;-34
2023/08/20 04:55:30;;;;;;;3.73;3.43;;;24.40;70.50;;;;;;5060142;28;20305;-34
2023/08/20 04:57:57;;;;;;;4.15;3.67;;;24.30;70.40;;;;;;5036563;28;20043;-34
2023/08/20 05:00:23;;;;;;;3.75;3.45;;;24.30;70.30;;;;;;5046838;28;20033;-34
2023/08/20 05:02:49;;;;;;;3.90;3.60;;;24.30;70.40;;;;;;5049284;28;20524;-35
2023/08/20 05:05:15;;;;;;;3.83;3.53;;;24.30;70.30;;;;;;5047168;28;20113;-34
2023/08/20 05:07:41;;;;;;;4.20;3.90;;;24.30;70.30;;;;;;5048963;28;20304;-33
2023/08/20 05:10:08;;;;;;;4.18;3.78;;;24.30;70.50;;;;;;5047469;28;20035;-34
2023/08/20 05:12:35;;;;;;;3.90;3.60;;;24.30;70.70;;;;;;5050825;28;20064;-34
2023/08/20 05:15:01;;;;;;;3.97;3.67;;;24.30;71.00;;;;;;5046930;28;20086;-34
2023/08/20 05:17:27;;;;;;;4.03;3.73;;;24.30;71.10;;;;;;5044967;28;20043;-34
2023/08/20 05:19:53;;;;;;;3.77;3.47;;;24.30;71.10;;;;;;5051142;28;20029;-34
2023/08/20 05:22:20;;;;;;;4.45;4.03;;;24.30;71.20;;;;;;5048088;28;20037;-35
2023/08/20 05:24:46;;;;;;;4.03;3.63;;;24.30;71.20;;;;;;5046370;28;20033;-34
2023/08/20 05:27:14;;;;;;;4.05;3.75;;;24.30;70.90;;;;;;5048058;28;20091;-35
2023/08/20 05:29:40;;;;;;;4.05;3.75;;;24.20;70.70;;;;;;5051363;28;20026;-34
2023/08/20 05:32:07;;;;;;;4.28;3.88;;;24.30;70.70;;;;;;5051179;28;20037;-34
2023/08/20 05:34:33;;;;;;;4.38;3.97;;;24.30;70.70;;;;;;5057014;28;20674;-34
2023/08/20 05:36:59;;;;;;;4.28;3.90;;;24.20;70.70;;;;;;5057447;28;20057;-34
2023/08/20 05:39:26;;;;;;;4.10;3.80;;;24.20;70.70;;;;;;5035880;28;20096;-34
2023/08/20 05:41:53;;;;;;;4.13;3.83;;;24.20;70.70;;;;;;5050525;28;20069;-34
2023/08/20 05:44:19;;;;;;;;;;;24.20;70.70;;;;;;5052778;28;20311;-35
2023/08/20 05:46:45;;;;;;;4.18;3.88;;;24.20;70.80;;;;;;5035795;28;19958;-35
2023/08/20 05:49:13;;;;;;;4.50;4.10;;;24.20;70.80;;;;;;5052426;28;20033;-34
2023/08/20 05:51:40;;;;;;;5.00;3.90;;;24.20;70.90;;;;;;5048824;28;20045;-34
2023/08/20 05:54:06;;;;;;;3.92;3.63;;;24.20;71.10;;;;;;5051880;28;20035;-34
2023/08/20 05:56:32;;;;;;;4.15;3.78;;;24.20;71.20;;;;;;5046825;28;20033;-34
2023/08/20 05:58:58;;;;;;;4.20;3.90;;;24.20;71.30;;;;;;5052165;28;20075;-34
2023/08/20 06:01:24;;;;;;;4.65;4.25;;;24.20;71.20;;;;;;5045682;28;20037;-34
2023/08/20 06:03:50;;;;;;;4.57;4.18;;;24.10;71.20;;;;;;5043462;28;20040;-35
2023/08/20 06:06:16;;;;;;;4.28;3.95;;;24.20;71.30;;;;;;5028534;28;20681;-34
2023/08/20 06:08:43;;;;;;;4.70;4.30;;;24.20;71.10;;;;;;5049879;28;20048;-34
2023/08/20 06:11:09;;;;;;;4.10;3.80;;;24.10;71.20;;;;;;5049416;28;20126;-34
2023/08/20 06:13:35;;;;;;;4.35;4.00;;;24.10;71.00;;;;;;5054527;28;20033;-35
2023/08/20 06:16:01;;;;;;;4.20;3.80;;;24.10;71.10;;;;;;5052617;28;20097;-34
2023/08/20 06:18:27;;;;;;;4.00;3.70;;;24.10;71.00;;;;;;5055552;28;20049;-35
2023/08/20 06:20:54;;;;;;;4.32;3.92;;;24.10;71.10;;;;;;5050049;28;20033;-34
2023/08/20 06:23:20;;;;;;;4.38;3.97;;;24.10;71.20;;;;;;5053265;28;20029;-34
2023/08/20 06:25:46;;;;;;;4.05;3.67;;;24.10;71.30;;;;;;5053435;28;20037;-34
2023/08/20 06:28:12;;;;;;;4.65;4.25;;;24.10;71.30;;;;;;5047238;28;20052;-34
2023/08/20 06:30:38;;;;;;;4.95;4.47;;;24.10;71.50;;;;;;5050534;28;20049;-38
2023/08/20 06:33:04;;;;;;;4.15;3.85;;;24.10;71.50;;;;;;5055546;28;20057;-34
2023/08/20 06:35:31;;;;;;;5.20;4.70;;;24.10;71.50;;;;;;5053054;28;20098;-34
2023/08/20 06:37:57;;;;;;;4.10;3.75;;;24.10;71.50;;;;;;5053065;28;20029;-34
2023/08/20 06:40:23;;;;;;;4.88;4.40;;;24.10;71.50;;;;;;5060316;28;20028;-34
2023/08/20 06:42:49;;;;;;;4.43;4.05;;;24.10;71.60;;;;;;5045237;28;20112;-34
2023/08/20 06:45:15;;;;;;;4.38;3.97;;;24.00;72.30;;;;;;5059095;28;20029;-34
2023/08/20 06:47:41;;;;;;;4.60;4.20;;;24.00;71.50;;;;;;5049054;28;20068;-34
2023/08/20 06:50:08;;;;;;;4.55;4.15;;;24.10;71.60;;;;;;5055369;28;20060;-34
2023/08/20 06:52:34;;;;;;;4.78;4.38;;;24.10;71.60;;;;;;5052232;28;20097;-34
2023/08/20 06:55:00;;;;;;;4.03;3.63;;;24.00;71.50;;;;;;5058624;28;20059;-34
2023/08/20 06:57:26;;;;;;;3.92;3.63;;;24.00;71.60;;;;;;5054408;28;20092;-34
2023/08/20 06:59:52;;;;;;;4.65;4.25;;;24.00;71.50;;;;;;5050314;28;20044;-34
2023/08/20 07:02:18;;;;;;;3.75;3.42;;;24.00;71.80;;;;;;5048806;28;20041;-35
2023/08/20 07:04:44;;;;;;;4.38;3.97;;;24.00;71.70;;;;;;5049107;28;20029;-34
2023/08/20 07:07:11;;;;;;;4.72;4.32;;;24.00;72.60;;;;;;5045735;28;20059;-35
2023/08/20 07:09:39;;;;;;;7.10;4.55;;;24.00;71.80;;;;;;5045624;28;20033;-35
2023/08/20 07:12:05;;;;;;;4.70;4.30;;;24.00;72.00;;;;;;5049234;28;20044;-34
2023/08/20 07:14:32;;;;;;;4.90;4.23;;;24.00;71.90;;;;;;5050996;28;20033;-34
2023/08/20 07:16:59;;;;;;;4.80;4.40;;;24.00;72.00;;;;;;5047214;28;20289;-34
2023/08/20 07:19:25;;;;;;;4.75;4.35;;;24.00;72.10;;;;;;5035124;28;20282;-34
2023/08/20 07:21:52;;;;;;;4.93;4.20;;;24.00;72.10;;;;;;5048012;28;20029;-34
2023/08/20 07:24:18;;;;;;;5.10;4.40;;;23.90;72.70;;;;;;5046102;28;20076;-34
2023/08/20 07:26:44;;;;;;;4.28;3.88;;;24.00;72.80;;;;;;5049869;28;20063;-34
2023/08/20 07:29:10;;;;;;;4.70;4.30;;;24.00;71.90;;;;;;5046425;28;20039;-34
2023/08/20 07:31:36;;;;;;;4.53;4.13;;;24.00;72.00;;;;;;5082006;28;20529;-34
2023/08/20 07:34:04;;;;;;;5.03;4.63;;;23.90;71.90;;;;;;5064916;28;20044;-35
2023/08/20 07:36:30;;;;;;;4.35;4.03;;;23.90;71.90;;;;;;5071300;28;20040;-34
2023/08/20 07:38:56;;;;;;;4.55;4.15;;;23.90;72.20;;;;;;5053631;28;20036;-34
2023/08/20 07:41:22;;;;;;;4.78;4.28;;;23.90;72.00;;;;;;5049700;28;20040;-34
2023/08/20 07:43:49;;;;;;;4.70;4.30;;;23.90;72.20;;;;;;5051848;28;20033;-34
2023/08/20 07:46:15;;;;;;;5.00;4.60;;;23.90;72.20;;;;;;5036234;28;20029;-35
2023/08/20 07:48:41;;;;;;;4.50;4.10;;;23.90;72.20;;;;;;5050232;28;20037;-35
2023/08/20 07:51:08;;;;;;;4.68;4.28;;;23.90;72.30;;;;;;5052349;28;20094;-33
2023/08/20 07:53:34;;;;;;;4.83;4.43;;;23.90;72.20;;;;;;5031234;28;20033;-34
2023/08/20 07:56:00;;;;;;;5.30;4.80;;;23.90;72.40;;;;;;5049408;28;20029;-34
2023/08/20 07:58:28;;;;;;;5.15;4.68;;;23.90;72.40;;;;;;5053229;28;20032;-34
2023/08/20 08:00:54;;;;;;;;;;;23.90;72.40;;;;;;5052277;28;20064;-34
2023/08/20 08:03:20;;;;;;;4.47;4.07;;;23.80;72.30;;;;;;5047817;28;19919;-35
2023/08/20 08:06:07;;;;;;;4.45;4.05;;;23.80;72.30;;;;;;5031333;28;20140;-34
2023/08/20 08:08:33;;;;;;;5.13;4.68;;;23.80;72.30;;;;;;4974048;28;20061;-34
2023/08/20 08:10:59;;;;;;;4.55;4.15;;;23.80;72.30;;;;;;4980825;28;20067;-34
2023/08/20 08:13:26;;;;;;;4.70;4.30;;;23.80;72.40;;;;;;4980666;28;20066;-34
2023/08/20 08:15:52;;;;;;;;;;;23.80;72.30;;;;;;4969675;28;20043;-34
2023/08/20 08:18:21;;;;;;;4.30;3.90;;;23.80;72.40;;;;;;4978869;28;19921;-34
2023/08/20 08:20:47;;;;;;;5.03;4.55;;;23.80;72.50;;;;;;4972953;28;20042;-34
2023/08/20 08:23:13;;;;;;;4.68;4.28;;;23.80;73.30;;;;;;4979804;28;20119;-34
2023/08/20 08:25:40;;;;;;;4.72;4.30;;;23.80;72.60;;;;;;4980930;28;20047;-34
2023/08/20 08:28:06;;;;;;;4.85;4.45;;;23.80;72.60;;;;;;4981037;28;20023;-34
2023/08/20 08:30:33;;;;;;;5.03;4.63;;;23.80;72.60;;;;;;4975577;28;20039;-34
2023/08/20 08:32:59;;;;;;;4.97;4.53;;;23.80;72.70;;;;;;4969891;28;20110;-34
2023/08/20 08:35:25;;;;;;;4.97;4.57;;;23.80;72.60;;;;;;4968252;28;20112;-34
2023/08/20 08:37:51;;;;;;;4.90;4.40;;;23.80;72.70;;;;;;4970568;28;20034;-34
2023/08/20 08:40:18;;;;;;;4.70;4.30;;;23.80;72.60;;;;;;4968544;28;20047;-35
2023/08/20 08:42:46;;;;;;;4.53;4.13;;;23.70;72.60;;;;;;4970164;28;20118;-34
2023/08/20 08:45:12;;;;;;;4.65;4.25;;;23.70;72.60;;;;;;4974955;28;20083;-34
2023/08/20 08:47:39;;;;;;;4.70;4.30;;;23.70;72.70;;;;;;5046838;28;20029;-34
2023/08/20 08:50:06;;;;;;;4.30;3.90;;;23.70;72.70;;;;;;5051079;28;20037;-34
2023/08/20 08:52:32;;;;;;;4.93;4.53;;;23.70;73.40;;;;;;5030975;28;20048;-34
2023/08/20 08:54:58;;;;;;;4.57;4.17;;;23.70;72.70;;;;;;5049406;28;20057;-34
2023/08/20 08:57:24;;;;;;;4.82;4.43;;;23.70;72.70;;;;;;5051766;28;20102;-34
2023/08/20 08:59:50;;;;;;;4.80;4.40;;;23.70;72.80;;;;;;5053052;28;20757;-34
2023/08/20 09:02:17;;;;;;;4.85;4.45;;;23.70;72.80;;;;;;5062832;28;20037;-34
2023/08/20 09:04:43;;;;;;;4.97;4.57;;;23.70;72.80;;;;;;5066659;28;20029;-34
2023/08/20 09:07:13;;;;;;;4.53;4.13;;;23.70;72.90;;;;;;5072647;28;20029;-34
2023/08/20 09:09:45;;;;;;;4.72;4.32;;;23.70;72.90;;;;;;5073438;28;20096;-34
2023/08/20 09:12:19;;;;;;;4.75;4.30;;;23.70;72.90;;;;;;5058257;28;20045;-34
2023/08/20 09:14:47;;;;;;;4.78;4.25;;;23.70;72.90;;;;;;5046940;28;20084;-34
2023/08/20 09:17:14;;;;;;;4.78;4.38;;;23.70;72.90;;;;;;5061413;28;20033;-34
2023/08/20 09:19:40;;;;;;;4.75;4.35;;;23.60;72.70;;;;;;5061549;28;20053;-34
2023/08/20 09:22:06;;;;;;;4.90;4.50;;;23.60;72.80;;;;;;5036421;28;20026;-34
2023/08/20 09:24:36;;;;;;;5.43;4.93;;;23.60;72.90;;;;;;5059228;28;20049;-33
2023/08/20 09:27:06;;;;;;;4.72;4.32;;;23.60;72.90;;;;;;5060260;28;20033;-34
2023/08/20 09:29:33;;;;;;;4.95;4.55;;;23.60;73.00;;;;;;5061213;28;20886;-34
2023/08/20 09:32:02;;;;;;;4.80;4.30;;;23.60;73.00;;;;;;5048624;28;20500;-34
2023/08/20 09:34:41;;;;;;;5.28;4.78;;;23.60;73.70;;;;;;5033650;28;20050;-34
2023/08/20 09:37:12;;;;;;;5.15;4.65;;;23.60;73.00;;;;;;5050614;28;20045;-35
2023/08/20 09:39:38;;;;;;;4.85;4.35;;;23.60;73.10;;;;;;5044705;28;21968;-34
2023/08/20 09:42:06;;;;;;;4.90;4.50;;;23.60;73.00;;;;;;5045081;28;20032;-33
2023/08/20 09:44:39;;;;;;;4.80;4.40;;;23.60;73.00;;;;;;5030972;28;20025;-35
2023/08/20 09:47:15;;;;;;;4.78;4.38;;;23.60;72.90;;;;;;5041525;28;20056;-35
2023/08/20 09:49:46;;;;;;;4.88;4.22;;;23.60;72.90;;;;;;5044242;28;20021;-34
2023/08/20 09:52:16;;;;;;;4.93;4.53;;;23.60;73.00;;;;;;5028330;28;20072;-34
2023/08/20 09:54:53;;;;;;;5.40;4.90;;;23.60;73.00;;;;;;5034383;28;20040;-34
2023/08/20 09:57:38;;;;;;;4.60;4.20;;;23.60;73.00;;;;;;5041046;28;20043;-34
2023/08/20 10:00:10;;;;;;;4.88;4.32;;;23.60;73.00;;;;;;5044140;28;20041;-35
2023/08/20 10:02:43;;;;;;;4.38;4.03;;;23.60;73.00;;;;;;5047864;28;20036;-34
2023/08/20 10:05:10;;;;;;;4.70;4.30;;;23.50;72.90;;;;;;5052898;28;20029;-34
2023/08/20 10:07:36;;;;;;;;;;;23.50;72.90;;;;;;5060466;28;20072;-34
2023/08/20 10:10:04;;;;;;;4.50;4.10;;;23.50;72.90;;;;;;5067967;28;19922;-34
2023/08/20 10:12:31;;;;;;;4.97;4.57;;;23.50;73.00;;;;;;5074057;28;20037;-34
2023/08/20 10:14:57;;;;;;;4.70;4.30;;;23.50;73.00;;;;;;5076404;28;20025;-34
2023/08/20 10:17:24;;;;;;;5.07;4.63;;;23.50;73.00;;;;;;5063085;28;20079;-34
2023/08/20 10:19:53;;;;;;;5.00;4.60;;;23.50;73.10;;;;;;5028930;28;20086;-34
2023/08/20 10:22:19;;;;;;;5.00;4.55;;;23.50;73.50;;;;;;5069726;28;20107;-34
2023/08/20 10:24:50;;;;;;;4.67;4.27;;;23.50;73.20;;;;;;5060663;28;20043;-34
2023/08/20 10:27:32;;;;;;;5.43;4.90;;;23.50;73.10;;;;;;5046477;28;20277;-34
2023/08/20 10:29:59;;;;;;;4.63;4.22;;;23.50;73.20;;;;;;5060412;28;20137;-34
2023/08/20 10:32:51;;;;;;;4.88;4.47;;;23.50;73.20;;;;;;5051493;28;20037;-34
2023/08/20 10:35:18;;;;;;;5.22;4.72;;;23.50;73.10;;;;;;5052253;28;20048;-34
2023/08/20 10:38:13;;;;;;;5.22;4.72;;;23.50;73.20;;;;;;5048670;28;20030;-34
2023/08/20 10:40:51;;;;;;;5.05;4.60;;;23.50;73.30;;;;;;5049557;28;20106;-34
2023/08/20 10:43:28;;;;;;;5.15;4.75;;;23.50;73.40;;;;;;5051379;28;20036;-34
2023/08/20 10:46:18;;;;;;;4.80;4.40;;;23.50;73.40;;;;;;5050918;28;20064;-34
2023/08/20 10:48:51;;;;;;;4.85;4.45;;;23.50;73.40;;;;;;5049361;28;20063;-35
2023/08/20 10:51:34;;;;;;;5.00;4.60;;;23.40;73.40;;;;;;5053210;28;20051;-34
2023/08/20 10:54:00;;;;;;;4.90;4.50;;;23.40;73.40;;;;;;5036618;28;20029;-34
2023/08/20 10:56:43;;;;;;;5.07;4.57;;;23.40;73.30;;;;;;5048907;28;20038;-34
2023/08/20 10:59:14;;;;;;;5.40;4.63;;;23.40;73.30;;;;;;5050989;28;20039;-35
2023/08/20 11:01:40;;;;;;;4.90;4.50;;;23.40;73.30;;;;;;5064352;28;20033;-35
2023/08/20 11:04:07;;;;;;;5.38;4.88;;;23.40;73.40;;;;;;5046336;28;20028;-33
2023/08/20 11:06:33;;;;;;;4.72;4.32;;;23.40;73.40;;;;;;5054432;28;20028;-34
2023/08/20 11:08:59;;;;;;;4.73;4.33;;;23.40;73.40;;;;;;5055868;28;20048;-35
2023/08/20 11:11:26;;;;;;;5.00;4.55;;;23.40;73.40;;;;;;5047610;28;20312;-35
2023/08/20 11:13:52;;;;;;;5.13;4.60;;;23.40;73.40;;;;;;5036251;28;20040;-34
2023/08/20 11:16:18;;;;;;;5.20;4.80;;;23.40;73.40;;;;;;5052794;28;20273;-35
2023/08/20 11:18:45;;;;;;;4.75;4.35;;;23.40;73.50;;;;;;5052013;28;20056;-35
2023/08/20 11:21:12;;;;;;;4.72;4.32;;;23.40;73.50;;;;;;5018840;28;20067;-35
2023/08/20 11:23:41;;;;;;;5.00;4.50;;;23.30;73.40;;;;;;5022294;28;20029;-35
2023/08/20 11:26:10;;;;;;;5.15;4.65;;;23.30;73.60;;;;;;5046889;28;20041;-35
2023/08/20 11:28:36;;;;;;;5.57;4.32;;;23.30;73.50;;;;;;5050484;28;20059;-35
2023/08/20 11:31:02;;;;;;;4.83;4.43;;;23.30;73.60;;;;;;5043460;28;20124;-34
2023/08/20 11:33:29;;;;;;;5.47;5.00;;;23.30;73.60;;;;;;5041344;28;20055;-35
2023/08/20 11:35:55;;;;;;;5.40;4.90;;;23.30;73.60;;;;;;5041790;28;20084;-35
2023/08/20 11:38:23;;;;;;;5.20;4.80;;;23.30;73.60;;;;;;5025704;28;20477;-35
2023/08/20 11:40:49;;;;;;;5.30;4.90;;;23.30;73.60;;;;;;5035050;28;21331;-35
2023/08/20 11:43:16;;;;;;;4.78;4.38;;;23.30;73.60;;;;;;5047757;28;20033;-35
2023/08/20 11:45:46;;;;;;;;;;;23.30;73.60;;;;;;5034206;28;20055;-35
2023/08/20 11:48:12;;;;;;;5.53;4.65;;;23.30;73.70;;;;;;5047067;28;20230;-35
2023/08/20 11:50:38;;;;;;;5.10;4.60;;;23.30;73.70;;;;;;5052726;28;20089;-35
2023/08/20 11:53:04;;;;;;;5.25;4.68;;;23.30;73.70;;;;;;5050941;28;20049;-34
2023/08/20 11:55:30;;;;;;;4.95;4.55;;;23.30;73.70;;;;;;5049037;28;20029;-35
2023/08/20 11:57:57;;;;;;;5.05;4.63;;;23.30;73.80;;;;;;5048804;28;20028;-35
2023/08/20 12:00:26;;;;;;;4.55;4.25;;;23.30;73.80;;;;;;5055347;28;20033;-35
2023/08/20 12:02:54;;;;;;;5.28;4.85;;;23.30;73.80;;;;;;5044720;28;20038;-35
2023/08/20 12:05:21;;;;;;;5.20;4.80;;;23.30;73.80;;;;;;5046565;28;20029;-35
2023/08/20 12:08:00;;;;;;;;;;;23.20;73.80;;;;;;5061656;28;20029;-35
2023/08/20 12:10:27;;;;;;;4.95;4.55;;;23.20;73.90;;;;;;5053273;28;19920;-35
2023/08/20 12:12:54;;;;;;;5.22;4.80;;;23.20;73.80;;;;;;5061148;28;20045;-35
2023/08/20 12:15:20;;;;;;;5.10;4.70;;;23.20;73.90;;;;;;5043117;28;20029;-35
2023/08/20 12:18:06;;;;;;;5.55;5.05;;;23.20;73.90;;;;;;5043520;28;20108;-35
2023/08/20 12:20:33;;;;;;;5.18;4.78;;;23.20;73.90;;;;;;5060534;28;20122;-35
2023/08/20 12:23:04;;;;;;;5.22;4.82;;;23.20;73.80;;;;;;5054223;28;20054;-35
2023/08/20 12:25:31;;;;;;;5.07;4.68;;;23.20;74.00;;;;;;5059945;28;20090;-35
2023/08/20 12:27:58;;;;;;;5.35;4.90;;;23.20;73.90;;;;;;5058205;28;20147;-35
2023/08/20 12:30:24;;;;;;;5.40;5.00;;;23.20;73.90;;;;;;5049805;28;20029;-36
2023/08/20 12:32:50;;;;;;;5.68;5.18;;;23.20;74.00;;;;;;5046532;28;20068;-35
2023/08/20 12:35:16;;;;;;;4.88;4.47;;;23.20;74.00;;;;;;5049274;28;20053;-35
2023/08/20 12:37:42;;;;;;;5.43;4.93;;;23.20;74.10;;;;;;5051007;28;20047;-35
2023/08/20 12:40:10;;;;;;;4.70;4.30;;;23.20;74.10;;;;;;5046511;28;20029;-35
2023/08/20 12:42:38;;;;;;;5.25;4.85;;;23.20;74.20;;;;;;5051586;28;20054;-36
2023/08/20 12:45:08;;;;;;;5.15;4.75;;;23.20;74.10;;;;;;5047992;28;20030;-35
2023/08/20 12:47:34;;;;;;;5.10;4.68;;;23.20;74.20;;;;;;5062191;28;20032;-36
2023/08/20 12:50:01;;;;;;;5.10;4.70;;;23.20;74.20;;;;;;5062997;28;20052;-35